• Join FlightAware (Why Join?)
  • Login
  • US Flag 
05:10PM EST


 

Airport Tracker/Info


-or-


 

Live Flight TrackerFlight Track Log ✈ N400PU ✈ 04-Jun-2013 ✈ KJVY - KLAF

Flight Track Log - Related Links

Times and Time Zones

All times are in EDT time to prevent confusion due to time zone crossing. See the N400PU flight status page for this flight to view local times or setup timezone preferences in your user account.

Time Position Orientation Groundspeed Altitude Reporting Facility
EDT Latitude Longitude Course Direction KTS MPH feet Rate Location/Type
09:20PM 38.3167 -85.6333 337° Northwest 244 281 3,000  Level Louisville TRACON
09:22PM 38.4117 -85.6856 337° Northwest 273 314 4,600 1,740 Climbing Indianapolis Center
09:23PM 38.4647 -85.7797 306° West 271 312 8,300 2,580 Climbing Indianapolis Center
09:24PM 38.5217 -85.8486 317° Northwest 293 337 10,000 900 Climbing Indianapolis Center
09:25PM 38.6050 -85.9031 333° Northwest 335 386 10,200 960 Climbing Indianapolis Center
09:26PM 38.6878 -85.9561 333° Northwest 336 387 12,000 1,800 Climbing Indianapolis Center
09:27PM 38.7742 -86.0131 333° Northwest 345 397 13,900 960 Climbing Indianapolis Center
09:28PM 38.8703 -86.0678 336° Northwest 371 427 14,000  Climbing Indianapolis Center
09:29PM 38.9822 -86.1283 337° Northwest 386 444 14,000  Level Indianapolis Center
09:30PM 39.0814 -86.1825 337° Northwest 388 447 14,000  Level Indianapolis Center
09:31PM 39.1811 -86.2383 337° Northwest 391 450 14,000  Level Indianapolis Center
09:32PM 39.2800 -86.2931 337° Northwest 388 447 14,000  Level Indianapolis Center
09:33PM 39.3806 -86.3489 337° Northwest 391 450 14,000  Level Indianapolis Center
09:34PM 39.4811 -86.4047 337° Northwest 391 450 14,000  Level Indianapolis Center
09:35PM 39.5808 -86.4619 336° Northwest 390 449 14,000  Level Indianapolis Center
09:36PM 39.6831 -86.5192 337° Northwest 392 451 14,000 -480 Level Indianapolis Center
09:37PM 39.7819 -86.5744 337° Northwest 386 444 13,100 -1,500 Descending Indianapolis Center
09:38PM 39.8756 -86.6275 336° Northwest 370 426 11,000 -1,860 Descending Indianapolis Center
09:39PM 39.9747 -86.6831 337° Northwest 324 373 9,300 -2,040 Descending Indianapolis Center
09:40PM 40.0458 -86.7261 335° Northwest 290 334 6,900 -2,220 Descending Indianapolis Center
09:41PM 40.1178 -86.7669 337° Northwest 284 327 4,800 -1,980 Descending Indianapolis Center
09:42PM 40.1731 -86.7992 336° Northwest 279 321 3,300 -1,320 Descending Chicago Center
09:43PM 40.2086 -86.8219 334° Northwest 259 298 3,000 -300 Descending Chicago Center
09:43PM 40.2311 -86.8325 340° North 249 287 3,000  Level Chicago Center
09:44PM 40.2575 -86.8497 334° Northwest 202 232 3,000 -120 Level Chicago Center
09:44PM 40.2808 -86.8608 340° North 216 249 2,900 -720 Descending Chicago Center
09:45PM 40.3128 -86.8833 332° Northwest 205 236 2,300 -780 Descending Chicago Center
09:45PM 40.3317 -86.8936 337° Northwest 206 237 2,100 -300 Descending Chicago Center
09:46PM 40.3572 -86.9161 326° Northwest 195 224 2,000  Descending Chicago Center
09:46PM 40.3767 -86.9319 328° Northwest 200 230 2,100 -120 Climbing Chicago Center
09:47PM 40.3756 -86.9828 268° West 198 228 1,900 -420 Descending Chicago Center
09:47PM 40.3803 -87.0053 285° West 196 226 1,700 -240 Descending Chicago Center
09:48PM 40.3967 -87.0281 313° West 164 189 1,700 60 Level Chicago Center
09:48PM 40.4150 -87.0247 North 207 238 1,800 -420 Climbing Chicago Center
09:49PM 40.4189 -86.9967 80° East 139 160 1,300 -1,200 Descending Chicago Center
09:51PM 40.4000 -86.9333 333° Northwest  Level FlightAware Approximate